Time;durP1;ratioP1;P1;durP2;ratioP2;P2;SDS_P1;SDS_P2;PMS_P1;PMS_P2;Temp;Humidity;BMP_temperature;BMP_pressure;BME280_temperature;BME280_humidity;BME280_pressure;Samples;Min_cycle;Max_cycle;Signal;HPM_P1;HPM_P2
2022/12/15 00:38:46;;;;;;;7.00;6.38;;;14.90;45.50;;;;;;5053802;28;20222;-65
2022/12/15 00:41:14;;;;;;;7.50;6.80;;;14.80;45.50;;;;;;5053690;28;20191;-65
2022/12/15 00:43:42;;;;;;;7.03;6.32;;;14.90;45.60;;;;;;5055432;28;20184;-65
2022/12/15 00:48:55;;;;;;;7.18;6.55;;;14.80;45.70;;;;;;5053786;28;20230;-65
2022/12/15 00:51:21;;;;;;;7.38;6.78;;;14.80;45.80;;;;;;5053975;28;20559;-65
2022/12/15 01:21:19;;;;;;;7.55;6.85;;;14.60;45.80;;;;;;5053841;28;20737;-65
2022/12/15 01:23:47;;;;;;;8.20;7.40;;;14.60;45.80;;;;;;5053160;28;20206;-65
2022/12/15 01:26:14;;;;;;;7.65;6.95;;;14.60;45.90;;;;;;5053279;28;20301;-65
2022/12/15 01:28:41;;;;;;;7.63;6.93;;;14.60;45.90;;;;;;5054347;28;20216;-65
2022/12/15 01:31:12;;;;;;;7.72;6.93;;;14.60;46.00;;;;;;5053191;28;20536;-65
2022/12/15 01:33:41;;;;;;;7.32;6.63;;;14.50;45.90;;;;;;5052406;28;20650;-65
2022/12/15 01:36:09;;;;;;;6.85;6.22;;;14.50;45.90;;;;;;5036569;28;20260;-65
2022/12/15 01:38:36;;;;;;;7.50;6.80;;;14.50;45.90;;;;;;5053030;28;20211;-65
2022/12/15 01:41:04;;;;;;;6.80;6.20;;;14.50;45.90;;;;;;5054152;28;20195;-65
2022/12/15 01:43:32;;;;;;;7.72;6.93;;;14.50;46.00;;;;;;5053167;28;20681;-65
2022/12/15 01:46:04;;;;;;;7.97;7.28;;;14.50;46.00;;;;;;5052922;28;20195;-65
2022/12/15 01:48:38;;;;;;;7.43;6.72;;;14.50;45.90;;;;;;5052873;28;20227;-65
2022/12/15 01:51:16;;;;;;;7.40;6.70;;;14.50;46.10;;;;;;5053363;28;20265;-65
2022/12/15 01:53:45;;;;;;;8.18;7.38;;;14.50;45.90;;;;;;5054347;28;20179;-65
2022/12/15 01:56:12;;;;;;;9.13;7.95;;;14.40;46.00;;;;;;5053919;28;20194;-65
2022/12/15 01:58:40;;;;;;;8.00;7.20;;;14.40;45.90;;;;;;5054480;28;20269;-65
2022/12/15 02:01:08;;;;;;;8.27;7.47;;;14.40;46.10;;;;;;5052649;28;20199;-65
2022/12/15 02:03:35;;;;;;;8.68;7.78;;;14.40;46.10;;;;;;5037340;28;20206;-63
2022/12/15 02:06:02;;;;;;;7.70;7.00;;;14.40;46.00;;;;;;5053647;28;20206;-63
2022/12/15 02:08:30;;;;;;;7.78;7.05;;;14.30;45.80;;;;;;5053143;28;20700;-64
2022/12/15 02:11:31;;;;;;;8.85;7.78;;;14.40;46.10;;;;;;5054715;28;20198;-64
2022/12/15 02:13:59;;;;;;;8.48;7.68;;;14.30;46.00;;;;;;5052915;28;20215;-64
2022/12/15 02:16:30;;;;;;;7.63;6.90;;;14.30;45.80;;;;;;5054231;28;20202;-64
2022/12/15 02:18:59;;;;;;;8.07;7.28;;;14.30;46.10;;;;;;5059342;28;20686;-64
2022/12/15 02:21:29;;;;;;;8.45;7.65;;;14.30;46.10;;;;;;5053169;28;20202;-64
2022/12/15 02:24:29;;;;;;;7.50;6.80;;;14.20;46.80;;;;;;5053761;28;20217;-64
2022/12/15 02:27:16;;;;;;;8.95;8.05;;;14.30;46.20;;;;;;5040092;28;20206;-64
2022/12/15 02:30:15;;;;;;;7.13;6.43;;;14.20;46.20;;;;;;5052904;28;20194;-64
2022/12/15 02:32:45;;;;;;;8.48;7.60;;;14.20;46.30;;;;;;5052543;28;20547;-64
2022/12/15 02:35:15;;;;;;;7.50;6.80;;;14.20;46.30;;;;;;5053010;28;20215;-64
2022/12/15 02:37:42;;;;;;;8.15;7.40;;;14.20;46.20;;;;;;5052539;28;20223;-64
2022/12/15 02:40:10;;;;;;;8.90;8.00;;;14.20;46.40;;;;;;5053405;28;20583;-64
2022/12/15 02:42:38;;;;;;;8.07;7.25;;;14.20;46.40;;;;;;5053635;28;20195;-64
2022/12/15 02:45:07;;;;;;;7.95;7.15;;;14.20;46.40;;;;;;5055614;28;20201;-64
2022/12/15 02:47:38;;;;;;;8.75;7.18;;;14.20;46.40;;;;;;5055871;28;20216;-65
2022/12/15 02:50:31;;;;;;;8.30;7.50;;;14.10;46.40;;;;;;5057244;28;20191;-65
2022/12/15 02:53:06;;;;;;;7.88;7.07;;;14.10;46.50;;;;;;5055990;28;20199;-65
2022/12/15 02:55:37;;;;;;;8.30;7.50;;;14.10;46.50;;;;;;5057034;28;20195;-63
2022/12/15 02:58:07;;;;;;;8.30;7.50;;;14.10;46.40;;;;;;5057114;28;20683;-64
2022/12/15 03:00:37;;;;;;;7.65;6.95;;;14.10;46.40;;;;;;5055646;28;20205;-64
2022/12/15 03:03:05;;;;;;;8.70;7.80;;;14.10;46.40;;;;;;5056664;28;20187;-64
2022/12/15 03:05:32;;;;;;;8.10;7.30;;;14.10;46.20;;;;;;5055487;28;20191;-64
2022/12/15 03:08:00;;;;;;;8.93;7.70;;;14.10;46.40;;;;;;5055248;28;20301;-64
2022/12/15 03:10:27;;;;;;;7.93;7.20;;;14.10;46.40;;;;;;5055490;28;20204;-64
2022/12/15 03:12:54;;;;;;;7.55;6.78;;;14.00;46.40;;;;;;5055563;28;20597;-64
2022/12/15 03:15:22;;;;;;;8.40;7.38;;;14.00;46.30;;;;;;5055083;28;20223;-64
2022/12/15 03:17:49;;;;;;;8.13;7.22;;;14.00;46.40;;;;;;5056095;28;20580;-64
2022/12/15 03:20:18;;;;;;;8.07;7.28;;;14.00;46.40;;;;;;5055170;28;20277;-64
2022/12/15 03:22:44;;;;;;;7.75;7.05;;;14.00;46.40;;;;;;5054996;28;20208;-64
2022/12/15 03:25:12;;;;;;;8.68;7.72;;;14.00;46.60;;;;;;5056268;28;20198;-64
2022/12/15 03:27:39;;;;;;;8.35;7.50;;;14.00;46.60;;;;;;5055932;28;20315;-64
2022/12/15 03:30:08;;;;;;;8.43;7.63;;;13.90;46.30;;;;;;5056214;28;20195;-64
2022/12/15 03:32:35;;;;;;;8.13;7.32;;;13.90;46.40;;;;;;5055489;28;20214;-64
2022/12/15 03:35:02;;;;;;;8.00;7.22;;;13.90;46.40;;;;;;5055757;28;20219;-64
2022/12/15 03:37:30;;;;;;;8.35;7.53;;;13.90;46.60;;;;;;5056383;28;20229;-64
2022/12/15 03:39:57;;;;;;;8.25;7.43;;;13.90;47.10;;;;;;5056020;28;20187;-64
2022/12/15 03:45:07;;;;;;;7.82;7.05;;;13.90;46.60;;;;;;5053791;28;20199;-64
2022/12/15 03:47:33;;;;;;;8.32;7.53;;;13.90;46.70;;;;;;5054681;28;20625;-64
2022/12/15 03:50:01;;;;;;;7.82;7.03;;;13.90;46.70;;;;;;5054876;28;20196;-64
2022/12/15 03:52:31;;;;;;;8.18;7.47;;;13.90;46.70;;;;;;5055772;28;20298;-64
2022/12/15 03:54:59;;;;;;;7.78;7.05;;;13.90;46.60;;;;;;5053928;28;20215;-64
2022/12/15 03:57:26;;;;;;;7.55;6.82;;;13.80;46.50;;;;;;5054523;28;20226;-63
2022/12/15 03:59:54;;;;;;;8.05;7.25;;;13.90;46.60;;;;;;5054414;28;20242;-63
2022/12/15 04:02:21;;;;;;;8.30;7.50;;;13.80;46.50;;;;;;5054252;28;20626;-64
2022/12/15 04:04:48;;;;;;;7.78;6.97;;;13.80;46.50;;;;;;5054424;28;20187;-65
2022/12/15 04:07:15;;;;;;;8.75;7.85;;;13.80;46.60;;;;;;5054212;28;20203;-65
2022/12/15 04:09:43;;;;;;;8.23;7.30;;;13.80;46.70;;;;;;5038109;28;20253;-64
2022/12/15 04:12:10;;;;;;;7.97;7.18;;;13.80;46.60;;;;;;5054162;28;20252;-64
2022/12/15 04:14:41;;;;;;;8.48;7.35;;;13.80;46.60;;;;;;5054389;28;20195;-64
2022/12/15 04:17:08;;;;;;;8.50;7.68;;;13.80;46.70;;;;;;5055859;28;20190;-64
2022/12/15 04:22:20;;;;;;;10.73;9.57;;;13.80;46.50;;;;;;5055677;28;20581;-64
2022/12/15 05:33:31;;;;;;;7.68;6.93;;;14.30;45.70;;;;;;5053154;28;20198;-65
2022/12/15 05:35:58;;;;;;;8.98;7.78;;;14.30;45.60;;;;;;5053090;28;20238;-66
2022/12/15 05:38:25;;;;;;;8.60;7.68;;;14.30;45.70;;;;;;5053454;28;20556;-66
2022/12/15 05:40:52;;;;;;;8.80;7.90;;;14.40;45.80;;;;;;5054831;28;20287;-66
2022/12/15 05:43:20;;;;;;;8.85;7.95;;;14.40;45.70;;;;;;5054323;28;20203;-66
2022/12/15 05:45:48;;;;;;;9.18;8.20;;;14.40;45.70;;;;;;5057012;28;20190;-66
2022/12/15 05:48:16;;;;;;;8.73;7.85;;;14.40;45.70;;;;;;5054349;28;20215;-66
2022/12/15 05:50:43;;;;;;;9.50;8.45;;;14.40;45.70;;;;;;5053123;28;20568;-66
2022/12/15 05:53:10;;;;;;;10.00;8.68;;;14.50;45.70;;;;;;5053632;28;20206;-66
2022/12/15 05:55:37;;;;;;;10.98;9.73;;;14.50;45.50;;;;;;5054095;28;20257;-66
2022/12/15 05:58:04;;;;;;;11.38;10.18;;;14.50;45.30;;;;;;5053627;28;20219;-66
2022/12/15 06:00:31;;;;;;;10.18;9.15;;;14.60;45.50;;;;;;5054172;28;20234;-66
2022/12/15 06:03:01;;;;;;;9.50;8.50;;;14.60;45.20;;;;;;5053199;28;20203;-66
2022/12/15 06:05:28;;;;;;;9.70;8.70;;;14.60;45.00;;;;;;5053382;28;20202;-66
2022/12/15 06:07:55;;;;;;;8.23;7.35;;;14.60;45.00;;;;;;5052626;28;20286;-66
2022/12/15 06:10:22;;;;;;;10.45;8.80;;;14.60;45.10;;;;;;5052750;28;20195;-66
2022/12/15 06:12:49;;;;;;;10.50;8.98;;;14.60;44.90;;;;;;5053059;28;20233;-66
2022/12/15 06:15:16;;;;;;;11.45;9.85;;;14.60;45.10;;;;;;5052776;28;20306;-66
2022/12/15 06:17:43;;;;;;;9.70;8.70;;;14.60;44.80;;;;;;5052407;28;20219;-66
2022/12/15 06:20:13;;;;;;;9.15;8.20;;;14.60;45.30;;;;;;5057296;28;20282;-66
2022/12/15 06:22:40;;;;;;;9.65;8.65;;;14.60;45.90;;;;;;5056885;28;20574;-66
2022/12/15 06:25:08;;;;;;;11.35;9.18;;;14.70;46.50;;;;;;5058056;28;20191;-66
2022/12/15 06:27:36;;;;;;;10.90;9.02;;;14.70;46.80;;;;;;5057450;28;20222;-66
2022/12/15 06:30:03;;;;;;;9.85;8.85;;;14.70;46.80;;;;;;5056953;28;20688;-66
2022/12/15 06:32:30;;;;;;;9.63;8.63;;;14.70;47.20;;;;;;5058876;28;20197;-66
2022/12/15 06:34:58;;;;;;;11.27;9.35;;;14.80;47.30;;;;;;5056607;28;20210;-66
2022/12/15 06:37:26;;;;;;;10.68;9.57;;;14.80;47.10;;;;;;5056594;28;20219;-65
2022/12/15 06:39:53;;;;;;;11.05;8.70;;;14.80;47.50;;;;;;5057612;28;20199;-65
2022/12/15 06:42:20;;;;;;;10.38;9.27;;;14.80;47.50;;;;;;5056560;28;20207;-65
2022/12/15 06:44:47;;;;;;;9.88;8.70;;;14.80;48.00;;;;;;5057631;28;20191;-65
2022/12/15 06:47:15;;;;;;;10.63;9.45;;;14.80;47.00;;;;;;5058018;28;20270;-65
2022/12/15 06:49:41;;;;;;;10.05;9.00;;;14.80;45.90;;;;;;5056540;28;20196;-65
2022/12/15 06:52:09;;;;;;;10.63;8.18;;;14.80;45.20;;;;;;5056784;28;20195;-65
2022/12/15 06:54:37;;;;;;;7.75;7.05;;;14.80;45.30;;;;;;5040257;28;20205;-65
2022/12/15 06:57:04;;;;;;;10.10;8.18;;;14.80;45.20;;;;;;5056142;28;20226;-65
2022/12/15 06:59:32;;;;;;;9.43;8.02;;;14.80;45.10;;;;;;5056213;28;20600;-65
2022/12/15 07:02:00;;;;;;;8.65;7.75;;;14.80;44.90;;;;;;5055754;28;20677;-66
2022/12/15 07:04:26;;;;;;;11.55;9.55;;;14.80;45.10;;;;;;5039417;28;20196;-66
2022/12/15 07:06:55;;;;;;;9.32;8.40;;;14.80;45.00;;;;;;5055985;28;20694;-66
2022/12/15 07:09:24;;;;;;;9.10;8.20;;;14.80;44.90;;;;;;5055738;28;20247;-66
2022/12/15 07:11:53;;;;;;;8.38;7.57;;;14.80;44.70;;;;;;5055732;28;20199;-66
2022/12/15 07:14:19;;;;;;;10.07;9.10;;;14.80;44.60;;;;;;5055627;28;20270;-65
2022/12/15 07:16:47;;;;;;;8.82;7.93;;;14.70;44.60;;;;;;5055610;28;20212;-66
2022/12/15 07:19:14;;;;;;;11.43;10.32;;;14.70;44.40;;;;;;5055666;28;20223;-65
2022/12/15 07:21:42;;;;;;;10.55;9.15;;;14.80;44.30;;;;;;5055399;28;20202;-65
2022/12/15 07:24:10;;;;;;;9.82;8.80;;;14.70;44.40;;;;;;5055366;28;20340;-65
2022/12/15 07:26:38;;;;;;;10.43;9.23;;;14.80;44.40;;;;;;5055456;28;20230;-65
2022/12/15 07:29:06;;;;;;;10.38;9.35;;;14.80;44.40;;;;;;5055424;28;20314;-65
2022/12/15 07:31:33;;;;;;;9.90;8.90;;;14.80;44.40;;;;;;5054512;28;20206;-65
2022/12/15 07:34:01;;;;;;;9.45;8.55;;;14.80;44.40;;;;;;5055685;28;20593;-64
2022/12/15 07:36:28;;;;;;;10.30;9.20;;;14.80;44.50;;;;;;5055413;28;20557;-64
2022/12/15 07:38:59;;;;;;;8.93;8.13;;;14.80;44.40;;;;;;5056760;28;20267;-64
2022/12/15 07:41:26;;;;;;;11.05;9.85;;;14.90;44.70;;;;;;5056913;28;20227;-64
2022/12/15 07:43:54;;;;;;;9.68;8.60;;;14.90;44.30;;;;;;5055565;28;20230;-64
2022/12/15 07:46:22;;;;;;;10.18;9.18;;;14.90;44.40;;;;;;5056361;28;20196;-64
2022/12/15 07:48:50;;;;;;;10.32;9.20;;;14.90;44.30;;;;;;5055658;28;20215;-64
2022/12/15 07:51:18;;;;;;;9.73;8.73;;;14.90;44.40;;;;;;5055498;28;20199;-64
2022/12/15 07:53:45;;;;;;;10.20;9.23;;;14.90;44.30;;;;;;5056622;28;20187;-64
2022/12/15 07:56:12;;;;;;;10.55;9.45;;;15.00;44.30;;;;;;5055073;28;20254;-64
2022/12/15 07:58:39;;;;;;;10.50;9.32;;;15.00;44.40;;;;;;5054934;28;20223;-64
2022/12/15 08:01:08;;;;;;;11.88;10.10;;;15.00;44.30;;;;;;5054759;28;20198;-64
2022/12/15 08:03:36;;;;;;;10.15;9.13;;;15.00;44.00;;;;;;5054618;28;20195;-64
2022/12/15 08:06:04;;;;;;;10.27;8.90;;;15.00;44.20;;;;;;5056254;28;20195;-64
2022/12/15 08:08:31;;;;;;;9.35;8.32;;;15.00;44.20;;;;;;5054510;28;20219;-64
2022/12/15 08:10:58;;;;;;;11.25;10.05;;;15.10;44.30;;;;;;5054536;28;20210;-64
2022/12/15 08:13:25;;;;;;;10.15;9.15;;;15.10;44.40;;;;;;5054400;28;20195;-64
2022/12/15 08:15:53;;;;;;;10.95;9.70;;;15.10;44.20;;;;;;5054155;28;20211;-64
2022/12/15 08:18:20;;;;;;;9.35;8.15;;;15.10;44.10;;;;;;5054162;28;20216;-64
2022/12/15 08:20:49;;;;;;;10.52;9.35;;;15.10;44.20;;;;;;5054201;28;20691;-64
2022/12/15 08:23:17;;;;;;;9.85;8.85;;;15.10;44.20;;;;;;5054074;28;20203;-64
2022/12/15 08:25:44;;;;;;;10.63;9.48;;;15.10;44.20;;;;;;5054553;28;20579;-64
2022/12/15 08:28:11;;;;;;;9.85;8.85;;;15.20;43.90;;;;;;5053904;28;20287;-64
2022/12/15 08:30:39;;;;;;;8.00;7.20;;;15.20;44.10;;;;;;5053911;28;20252;-64
2022/12/15 08:33:06;;;;;;;10.52;9.45;;;15.20;44.20;;;;;;5053878;28;20206;-64
2022/12/15 08:35:32;;;;;;;10.88;9.63;;;15.20;44.00;;;;;;5054101;28;20196;-64
2022/12/15 08:38:02;;;;;;;13.07;9.63;;;15.20;44.00;;;;;;5053854;28;20231;-64
2022/12/15 08:40:30;;;;;;;10.85;9.75;;;15.20;44.10;;;;;;5053767;28;20195;-64
2022/12/15 08:42:57;;;;;;;9.82;8.82;;;15.20;43.90;;;;;;5055107;28;20223;-64
2022/12/15 08:45:24;;;;;;;9.68;8.68;;;15.20;43.80;;;;;;5055033;28;20658;-65
2022/12/15 08:47:51;;;;;;;10.55;9.45;;;15.30;43.90;;;;;;5054901;28;20211;-65
2022/12/15 08:50:18;;;;;;;9.05;7.85;;;15.20;43.80;;;;;;5053488;28;20199;-65
2022/12/15 08:52:46;;;;;;;9.90;8.90;;;15.30;43.90;;;;;;5054804;28;20619;-65
2022/12/15 08:55:14;;;;;;;10.57;9.48;;;15.30;43.70;;;;;;5053625;28;20199;-64
2022/12/15 08:57:41;;;;;;;10.85;9.75;;;15.40;43.80;;;;;;5053774;28;20227;-64
2022/12/15 09:00:09;;;;;;;10.18;9.07;;;15.40;44.30;;;;;;5053428;28;20195;-65
2022/12/15 09:02:36;;;;;;;10.43;9.32;;;15.40;43.90;;;;;;5054694;28;20194;-65
2022/12/15 09:05:05;;;;;;;10.43;9.32;;;15.40;43.80;;;;;;5054385;28;20223;-65
2022/12/15 09:07:32;;;;;;;10.77;9.68;;;15.40;43.60;;;;;;5053244;28;20257;-65
2022/12/15 09:09:59;;;;;;;10.50;9.10;;;15.40;43.70;;;;;;5053362;28;20207;-65
2022/12/15 09:12:27;;;;;;;10.13;8.88;;;15.40;43.80;;;;;;5053011;28;20203;-64
2022/12/15 09:14:55;;;;;;;9.75;8.73;;;15.40;43.70;;;;;;5054688;28;20234;-64
2022/12/15 09:17:22;;;;;;;10.10;8.90;;;15.50;43.70;;;;;;5053172;28;20220;-64
2022/12/15 09:19:49;;;;;;;11.70;9.85;;;15.50;43.60;;;;;;5052999;28;20265;-64
2022/12/15 09:22:16;;;;;;;10.60;9.50;;;15.50;43.20;;;;;;5052982;28;20199;-64
2022/12/15 09:24:43;;;;;;;12.18;9.73;;;15.50;43.30;;;;;;5052999;28;20233;-64
2022/12/15 09:27:11;;;;;;;10.32;9.00;;;15.50;43.30;;;;;;5053078;28;20199;-64
2022/12/15 09:29:39;;;;;;;11.18;9.98;;;15.60;43.30;;;;;;5054407;28;20188;-64
2022/12/15 09:32:07;;;;;;;9.57;8.57;;;15.60;43.00;;;;;;5053033;28;20199;-64
2022/12/15 09:34:34;;;;;;;10.93;9.43;;;15.60;43.10;;;;;;5054242;28;20679;-64
2022/12/15 09:37:02;;;;;;;10.05;9.05;;;15.70;43.20;;;;;;5052817;28;20237;-64
2022/12/15 09:39:29;;;;;;;9.52;8.52;;;15.70;42.90;;;;;;5052990;28;20229;-64
2022/12/15 09:41:58;;;;;;;10.75;9.50;;;15.70;42.90;;;;;;5053551;28;20212;-64
2022/12/15 09:44:26;;;;;;;9.70;8.70;;;15.80;43.00;;;;;;5054536;28;20251;-64
2022/12/15 09:47:04;;;;;;;9.60;8.60;;;15.80;42.60;;;;;;5054329;28;20543;-64
2022/12/15 09:49:39;;;;;;;10.30;9.23;;;15.80;42.80;;;;;;5054155;28;20175;-64
2022/12/15 09:52:08;;;;;;;10.43;9.32;;;15.90;42.70;;;;;;5053330;28;20214;-64
2022/12/15 09:54:35;;;;;;;9.60;8.68;;;15.90;42.60;;;;;;5052404;28;20191;-65
2022/12/15 09:57:05;;;;;;;11.35;9.50;;;15.90;42.50;;;;;;5052944;28;20681;-65
2022/12/15 09:59:34;;;;;;;10.63;9.38;;;15.90;42.50;;;;;;5053163;28;20196;-65
2022/12/15 10:02:14;;;;;;;9.43;8.30;;;16.00;42.60;;;;;;5054501;28;20535;-65
2022/12/15 10:04:44;;;;;;;12.48;10.68;;;16.00;42.60;;;;;;5053035;28;20665;-65
2022/12/15 10:07:13;;;;;;;10.82;9.15;;;16.00;42.60;;;;;;5053385;28;20195;-65
2022/12/15 10:09:40;;;;;;;9.98;8.98;;;16.00;42.60;;;;;;5053541;28;20294;-65
2022/12/15 10:12:11;;;;;;;10.88;9.05;;;16.00;42.60;;;;;;5054201;28;20684;-65
2022/12/15 10:14:39;;;;;;;10.55;9.45;;;16.00;42.60;;;;;;5054485;28;20218;-65
2022/12/15 10:17:16;;;;;;;10.82;9.50;;;16.00;42.60;;;;;;5053635;28;20215;-65
2022/12/15 10:19:46;;;;;;;8.52;7.70;;;16.00;42.60;;;;;;5038238;28;20560;-65
2022/12/15 10:22:13;;;;;;;9.52;8.52;;;16.00;42.60;;;;;;5054720;28;20202;-65
2022/12/15 10:24:40;;;;;;;9.20;8.27;;;16.00;42.50;;;;;;5056959;28;20230;-65
2022/12/15 10:27:16;;;;;;;8.57;7.57;;;16.00;42.60;;;;;;5056688;28;20611;-65
2022/12/15 10:29:44;;;;;;;8.43;7.47;;;16.00;42.80;;;;;;5056099;28;20187;-65
2022/12/15 10:32:17;;;;;;;10.35;8.98;;;16.00;42.70;;;;;;5058548;28;20534;-65
2022/12/15 10:34:45;;;;;;;8.90;8.00;;;16.00;42.60;;;;;;5062578;28;20634;-65
2022/12/15 10:37:14;;;;;;;10.35;9.25;;;16.00;42.60;;;;;;5057947;28;20310;-65
2022/12/15 10:39:42;;;;;;;9.85;8.65;;;16.00;42.60;;;;;;5054283;28;20293;-65
2022/12/15 10:42:14;;;;;;;11.68;9.70;;;16.00;42.60;;;;;;5052825;28;20226;-65
2022/12/15 10:44:42;;;;;;;10.25;9.20;;;16.00;42.60;;;;;;5052578;28;20199;-65
2022/12/15 10:47:10;;;;;;;10.25;8.90;;;16.00;42.60;;;;;;5052580;28;20183;-65
2022/12/15 10:49:39;;;;;;;9.57;8.60;;;16.00;42.60;;;;;;5053315;28;20196;-65
2022/12/15 10:52:16;;;;;;;8.30;7.50;;;16.00;42.60;;;;;;5053553;28;20660;-65
2022/12/15 10:54:46;;;;;;;10.98;8.88;;;16.00;42.60;;;;;;5052324;28;20244;-65
2022/12/15 10:57:16;;;;;;;8.45;7.65;;;16.00;42.60;;;;;;5052024;28;20288;-65
2022/12/15 10:59:43;;;;;;;10.07;9.07;;;16.00;42.60;;;;;;5053488;28;20188;-65
2022/12/15 11:02:35;;;;;;;10.07;9.05;;;16.00;42.60;;;;;;5052073;28;20202;-65
2022/12/15 11:05:05;;;;;;;9.27;8.30;;;16.10;42.70;;;;;;5052555;28;20568;-65
2022/12/15 11:07:37;;;;;;;10.15;9.07;;;16.00;42.60;;;;;;5055974;28;20579;-65
2022/12/15 11:10:14;;;;;;;10.13;8.70;;;16.00;42.60;;;;;;5056580;28;20198;-65
2022/12/15 11:12:52;;;;;;;9.60;8.60;;;16.00;42.60;;;;;;5055863;28;20222;-65
2022/12/15 11:15:44;;;;;;;10.70;9.57;;;16.00;42.60;;;;;;5057250;28;20626;-65
2022/12/15 11:18:26;;;;;;;9.15;8.25;;;16.00;42.50;;;;;;5055409;28;20575;-65
2022/12/15 11:20:58;;;;;;;9.70;8.70;;;16.00;42.60;;;;;;5055688;28;20199;-65
2022/12/15 11:23:30;;;;;;;10.70;9.00;;;16.10;42.70;;;;;;5056244;28;20315;-65
2022/12/15 11:25:58;;;;;;;11.32;10.13;;;16.10;42.60;;;;;;5055588;28;20202;-65
2022/12/15 11:28:30;;;;;;;9.55;8.57;;;16.10;42.50;;;;;;5055439;28;20570;-65
2022/12/15 11:31:01;;;;;;;9.35;7.85;;;16.10;42.60;;;;;;5057115;28;20643;-64
2022/12/15 11:33:28;;;;;;;11.30;10.05;;;16.10;42.60;;;;;;5056411;28;20202;-64
2022/12/15 11:36:06;;;;;;;10.48;9.38;;;16.10;42.50;;;;;;5057581;28;20187;-64
2022/12/15 11:38:36;;;;;;;10.35;8.65;;;16.10;42.70;;;;;;5057857;28;20223;-64
2022/12/15 11:41:05;;;;;;;9.38;8.48;;;16.20;42.60;;;;;;5055132;28;20203;-64
2022/12/15 11:43:46;;;;;;;10.02;8.98;;;16.20;42.50;;;;;;5055285;28;20571;-64
2022/12/15 11:46:19;;;;;;;8.30;7.43;;;16.20;42.40;;;;;;5055138;28;20195;-65
2022/12/15 11:48:54;;;;;;;9.68;8.68;;;16.20;42.60;;;;;;5055230;28;20353;-65
2022/12/15 11:51:25;;;;;;;9.93;8.93;;;16.20;42.50;;;;;;5055223;28;20215;-65
2022/12/15 11:53:59;;;;;;;10.75;9.35;;;16.20;42.70;;;;;;5055366;28;20241;-65
2022/12/15 11:56:29;;;;;;;10.65;9.02;;;16.20;42.30;;;;;;5055289;28;20256;-65
2022/12/15 11:59:09;;;;;;;9.43;8.43;;;16.20;42.30;;;;;;5055389;28;20246;-65
2022/12/15 12:01:50;;;;;;;10.30;8.88;;;16.20;42.30;;;;;;5057424;28;20186;-65
2022/12/15 12:04:20;;;;;;;9.60;8.18;;;16.20;42.40;;;;;;5056280;28;20518;-65
2022/12/15 12:06:54;;;;;;;10.85;8.90;;;16.20;42.30;;;;;;5055466;28;20206;-65
2022/12/15 12:09:32;;;;;;;9.82;8.82;;;16.20;43.00;;;;;;5056367;28;20682;-65
2022/12/15 12:12:04;;;;;;;9.13;8.13;;;16.30;42.60;;;;;;5055497;28;20211;-65
2022/12/15 12:14:39;;;;;;;9.18;8.13;;;16.30;42.70;;;;;;5054949;28;20203;-65
2022/12/15 12:17:07;;;;;;;9.23;8.05;;;16.30;42.60;;;;;;5054271;28;20217;-65
2022/12/15 12:19:37;;;;;;;9.30;8.35;;;16.30;42.60;;;;;;5054641;28;20230;-65
2022/12/15 12:22:07;;;;;;;8.60;7.70;;;16.30;42.20;;;;;;5055813;28;20176;-65
2022/12/15 12:24:38;;;;;;;10.38;9.27;;;16.40;42.30;;;;;;5055732;28;20187;-65
2022/12/15 12:27:08;;;;;;;8.73;7.68;;;16.40;42.10;;;;;;5054317;28;20191;-65
2022/12/15 12:29:37;;;;;;;9.10;8.18;;;16.40;42.50;;;;;;5054496;28;20187;-65
2022/12/15 12:32:07;;;;;;;10.88;9.10;;;16.40;42.50;;;;;;5055633;28;20551;-65
2022/12/15 12:34:41;;;;;;;9.90;8.60;;;16.40;42.00;;;;;;5054732;28;20195;-65
2022/12/15 12:37:16;;;;;;;8.85;7.53;;;16.40;42.30;;;;;;5055267;28;20215;-65
2022/12/15 12:39:43;;;;;;;8.45;7.65;;;16.40;42.30;;;;;;5054654;28;20317;-65
2022/12/15 12:42:13;;;;;;;9.20;8.30;;;16.40;42.10;;;;;;5054095;28;20207;-65
2022/12/15 12:44:40;;;;;;;8.88;7.97;;;16.50;42.20;;;;;;5054143;28;20211;-65
2022/12/15 12:47:11;;;;;;;10.38;9.27;;;16.50;42.00;;;;;;5054227;28;20298;-65
2022/12/15 12:49:39;;;;;;;9.20;8.30;;;16.50;42.00;;;;;;5054130;28;20207;-65
2022/12/15 12:52:06;;;;;;;10.00;8.98;;;16.50;42.10;;;;;;5055513;28;20195;-65
2022/12/15 12:54:42;;;;;;;9.07;7.78;;;16.50;41.80;;;;;;5054137;28;20205;-65
2022/12/15 12:57:38;;;;;;;11.07;8.57;;;16.50;42.00;;;;;;5054564;28;20241;-65
2022/12/15 13:00:15;;;;;;;8.70;7.82;;;16.50;41.80;;;;;;5054204;28;20249;-65
2022/12/15 13:03:04;;;;;;;9.90;8.90;;;16.50;41.80;;;;;;5054209;28;20184;-65
2022/12/15 13:05:32;;;;;;;8.98;8.07;;;16.50;41.90;;;;;;5044553;28;20745;-66
2022/12/15 13:08:34;;;;;;;8.20;7.40;;;16.60;42.00;;;;;;5056013;28;20248;-65
2022/12/15 13:11:54;;;;;;;9.27;8.07;;;16.50;41.90;;;;;;5055097;28;20175;-65
2022/12/15 13:14:24;;;;;;;9.75;8.70;;;16.60;42.00;;;;;;5054457;28;20199;-65
2022/12/15 13:16:55;;;;;;;8.85;7.43;;;16.60;42.10;;;;;;5053379;28;20230;-65
2022/12/15 13:20:15;;;;;;;8.70;7.82;;;16.50;42.20;;;;;;5053623;28;20220;-65
2022/12/15 13:22:43;;;;;;;8.73;7.70;;;16.50;42.10;;;;;;5053741;28;20257;-65
2022/12/15 13:25:43;;;;;;;7.82;6.97;;;16.50;42.10;;;;;;5061947;28;20586;-65
2022/12/15 13:28:29;;;;;;;9.32;8.32;;;16.50;42.30;;;;;;5053508;28;20215;-65
2022/12/15 13:31:27;;;;;;;8.90;8.10;;;16.40;42.30;;;;;;5053188;28;20222;-64
2022/12/15 13:34:18;;;;;;;8.60;7.32;;;16.40;42.20;;;;;;5043383;28;20203;-64
2022/12/15 13:36:54;;;;;;;8.60;7.28;;;16.40;42.30;;;;;;5054541;28;20203;-64
2022/12/15 13:39:56;;;;;;;9.18;8.27;;;16.40;42.30;;;;;;5053346;28;20215;-64
2022/12/15 13:42:29;;;;;;;9.25;7.40;;;16.40;42.40;;;;;;5052822;28;20203;-64
2022/12/15 13:45:03;;;;;;;9.25;8.20;;;16.40;42.50;;;;;;5052857;28;20219;-64
2022/12/15 13:47:31;;;;;;;8.65;7.75;;;16.40;42.40;;;;;;5053061;28;20337;-64
2022/12/15 13:50:00;;;;;;;8.75;7.75;;;16.40;42.30;;;;;;5052850;28;20294;-64
2022/12/15 13:52:32;;;;;;;9.13;8.20;;;16.40;42.40;;;;;;5054131;28;20258;-64
2022/12/15 13:55:00;;;;;;;7.68;6.95;;;16.40;42.40;;;;;;5052624;28;20198;-64
2022/12/15 13:57:27;;;;;;;9.07;8.15;;;16.40;42.50;;;;;;5052295;28;20227;-64
2022/12/15 13:59:56;;;;;;;7.43;6.72;;;16.40;42.50;;;;;;5052541;28;20650;-64
2022/12/15 14:02:25;;;;;;;7.57;6.82;;;16.30;42.80;;;;;;5052332;28;20199;-64
2022/12/15 14:05:13;;;;;;;9.02;8.13;;;16.30;42.70;;;;;;5054066;28;20191;-64
2022/12/15 14:07:43;;;;;;;8.68;7.78;;;16.40;42.70;;;;;;5052344;28;20311;-64
2022/12/15 14:10:17;;;;;;;8.60;7.70;;;16.30;42.70;;;;;;5052387;28;20210;-64
2022/12/15 14:12:45;;;;;;;8.80;7.90;;;16.30;42.80;;;;;;5052875;28;20195;-64
2022/12/15 14:15:13;;;;;;;9.82;8.68;;;16.30;42.80;;;;;;5052453;28;20214;-64
2022/12/15 14:17:40;;;;;;;8.43;7.53;;;16.30;42.80;;;;;;5052330;28;20325;-64
2022/12/15 14:20:11;;;;;;;8.68;7.22;;;16.30;42.80;;;;;;5052391;28;20666;-64
2022/12/15 14:22:42;;;;;;;8.23;7.43;;;16.30;42.80;;;;;;5053940;28;20256;-64
2022/12/15 14:25:14;;;;;;;9.18;8.13;;;16.30;42.80;;;;;;5053654;28;20184;-64
2022/12/15 14:27:42;;;;;;;8.77;7.85;;;16.30;42.80;;;;;;5052223;28;20298;-64
2022/12/15 14:30:12;;;;;;;8.60;7.75;;;16.30;42.80;;;;;;5052273;28;20215;-64
2022/12/15 14:32:39;;;;;;;8.27;7.47;;;16.30;42.80;;;;;;5052449;28;20202;-65
2022/12/15 14:35:08;;;;;;;7.93;6.60;;;16.30;42.80;;;;;;5053272;28;20585;-65
2022/12/15 14:37:35;;;;;;;8.18;7.03;;;16.30;42.80;;;;;;5053364;28;20739;-65
2022/12/15 14:40:05;;;;;;;7.75;6.95;;;16.30;42.90;;;;;;5054483;28;20207;-65
2022/12/15 14:42:32;;;;;;;8.88;7.97;;;16.20;42.80;;;;;;5055808;28;20207;-65
2022/12/15 14:44:59;;;;;;;7.00;6.30;;;16.20;42.80;;;;;;5057334;28;20641;-65
2022/12/15 14:47:27;;;;;;;7.75;6.55;;;16.30;43.00;;;;;;5055656;28;20298;-65
2022/12/15 14:49:55;;;;;;;10.30;8.15;;;16.20;42.90;;;;;;5055640;28;20199;-65
2022/12/15 14:52:26;;;;;;;8.23;7.32;;;16.20;43.10;;;;;;5056985;28;20585;-65
2022/12/15 14:54:54;;;;;;;10.38;8.35;;;16.20;42.90;;;;;;5055696;28;20203;-65
2022/12/15 14:57:25;;;;;;;8.40;7.30;;;16.20;42.80;;;;;;5055524;28;20206;-65
2022/12/15 14:59:52;;;;;;;9.40;8.35;;;16.20;43.00;;;;;;5057035;28;20175;-65
2022/12/15 15:02:21;;;;;;;8.18;7.35;;;16.20;42.80;;;;;;5039185;28;20207;-65
2022/12/15 15:04:56;;;;;;;7.75;6.95;;;16.20;42.80;;;;;;5055810;28;20249;-65
2022/12/15 15:07:23;;;;;;;9.18;8.20;;;16.20;43.00;;;;;;5056543;28;20191;-67
2022/12/15 15:09:50;;;;;;;7.85;6.95;;;16.20;42.80;;;;;;5055523;28;20253;-65
2022/12/15 15:12:18;;;;;;;8.48;7.63;;;16.20;43.20;;;;;;5055518;28;20720;-65
2022/12/15 15:14:48;;;;;;;9.23;7.93;;;16.10;42.90;;;;;;5055542;28;20196;-65
2022/12/15 15:17:23;;;;;;;8.20;7.10;;;16.10;42.90;;;;;;5055109;28;20196;-65
2022/12/15 15:19:52;;;;;;;7.90;7.10;;;16.10;42.80;;;;;;5056238;28;20187;-64
2022/12/15 15:22:30;;;;;;;8.68;7.75;;;16.10;43.00;;;;;;5056661;28;20187;-64